createdAt,value
2019-02-25T00:01:13.343Z,9.55
2019-02-25T00:03:40.865Z,6.80
2019-02-25T00:06:08.258Z,8.38
2019-02-25T00:08:35.992Z,8.03
2019-02-25T00:11:03.546Z,6.97
2019-02-25T00:13:30.919Z,5.97
2019-02-25T00:15:58.314Z,7.72
2019-02-25T00:18:26.021Z,7.22
2019-02-25T00:20:53.583Z,6.20
2019-02-25T00:23:21.341Z,6.10
2019-02-25T00:25:48.686Z,6.35
2019-02-25T00:28:16.160Z,8.08
2019-02-25T00:30:43.634Z,7.67
2019-02-25T00:33:10.992Z,6.67
2019-02-25T00:35:38.262Z,9.13
2019-02-25T00:38:06.222Z,12.70
2019-02-25T00:40:33.656Z,6.50
2019-02-25T00:43:01.091Z,5.40
2019-02-25T00:45:28.744Z,5.67
2019-02-25T00:47:56.093Z,8.23
2019-02-25T00:50:23.421Z,5.72
2019-02-25T00:52:50.882Z,5.87
2019-02-25T00:55:18.270Z,5.67
2019-02-25T00:57:45.576Z,5.55
2019-02-25T01:00:13.577Z,7.35
2019-02-25T01:02:40.908Z,6.72
2019-02-25T01:05:08.537Z,6.90
2019-02-25T01:07:35.942Z,8.15
2019-02-25T01:10:04.054Z,6.33
2019-02-25T01:12:31.692Z,4.87
2019-02-25T01:14:59.092Z,8.53
2019-02-25T01:17:26.580Z,5.50
2019-02-25T01:19:54.242Z,7.92
2019-02-25T01:22:21.943Z,6.45
2019-02-25T01:24:49.728Z,7.17
2019-02-25T01:27:17.176Z,7.08
2019-02-25T01:29:44.704Z,6.25
2019-02-25T01:32:12.151Z,7.53
2019-02-25T01:34:39.656Z,8.05
2019-02-25T01:37:07.038Z,7.08
2019-02-25T01:39:34.471Z,6.25
2019-02-25T01:42:02.079Z,6.58
2019-02-25T01:44:29.793Z,5.67
2019-02-25T01:46:57.234Z,5.15
2019-02-25T01:49:24.812Z,6.90
2019-02-25T01:51:52.503Z,5.78
2019-02-25T01:54:19.855Z,6.00
2019-02-25T01:56:47.243Z,7.05
2019-02-25T01:59:14.731Z,5.53
2019-02-25T02:01:42.457Z,5.65
2019-02-25T02:04:09.821Z,5.33
2019-02-25T02:06:37.139Z,5.58
2019-02-25T02:09:06.846Z,6.47
2019-02-25T02:11:34.501Z,6.40
2019-02-25T02:14:01.861Z,6.50
2019-02-25T02:16:29.278Z,7.37
2019-02-25T02:18:56.691Z,6.70
2019-02-25T02:21:24.106Z,5.62
2019-02-25T02:23:51.528Z,5.30
2019-02-25T02:26:21.079Z,5.67
2019-02-25T02:28:48.775Z,5.85
2019-02-25T02:31:16.433Z,6.87
2019-02-25T02:33:43.781Z,6.33
2019-02-25T02:36:11.813Z,5.50
2019-02-25T02:38:39.672Z,7.15
2019-02-25T02:41:07.397Z,5.35
2019-02-25T02:43:34.755Z,5.58
2019-02-25T02:46:33.887Z,6.25
2019-02-25T02:49:02.911Z,6.00
2019-02-25T02:51:30.213Z,9.50
2019-02-25T02:53:57.583Z,5.83
2019-02-25T02:56:24.891Z,6.30
2019-02-25T02:58:52.333Z,4.95
2019-02-25T03:01:19.810Z,4.53
2019-02-25T03:03:47.374Z,6.75
2019-02-25T03:06:15.265Z,8.85
2019-02-25T03:08:43.291Z,7.25
2019-02-25T03:11:11.055Z,7.97
2019-02-25T03:13:38.777Z,5.95
2019-02-25T03:16:06.097Z,7.25
2019-02-25T03:18:33.447Z,5.50
2019-02-25T03:21:00.761Z,6.15
2019-02-25T03:23:28.045Z,6.25
2019-02-25T03:25:55.732Z,6.33
2019-02-25T03:28:23.106Z,6.95
2019-02-25T03:30:50.540Z,6.85
2019-02-25T03:33:18.082Z,5.35
2019-02-25T03:35:45.615Z,6.00
2019-02-25T03:38:12.921Z,3.77
2019-02-25T03:40:40.350Z,4.92
2019-02-25T03:43:07.698Z,5.95
2019-02-25T03:45:35.337Z,7.70
2019-02-25T03:48:02.767Z,6.03
2019-02-25T03:50:30.122Z,7.70
2019-02-25T03:52:57.433Z,6.62
2019-02-25T03:55:24.865Z,5.25
2019-02-25T03:57:52.402Z,5.90
2019-02-25T04:00:20.900Z,6.75
2019-02-25T04:02:48.298Z,4.12
2019-02-25T04:05:16.040Z,7.60
2019-02-25T04:07:43.427Z,3.98
2019-02-25T04:10:11.589Z,6.40
2019-02-25T04:12:38.900Z,5.05
2019-02-25T04:15:08.891Z,6.53
2019-02-25T04:17:36.202Z,6.10
2019-02-25T04:20:04.227Z,6.30
2019-02-25T04:22:31.868Z,7.15
2019-02-25T04:24:59.407Z,5.50
2019-02-25T04:27:26.778Z,5.85
2019-02-25T04:29:57.246Z,7.53
2019-02-25T04:32:24.551Z,5.40
2019-02-25T04:34:52.262Z,7.95
2019-02-25T04:37:19.570Z,8.35
2019-02-25T04:39:46.979Z,4.70
2019-02-25T04:42:14.646Z,6.00
2019-02-25T04:44:42.356Z,4.55
2019-02-25T04:47:09.954Z,7.58
2019-02-25T04:49:37.262Z,6.97
2019-02-25T04:52:04.718Z,6.97
2019-02-25T04:54:32.142Z,6.80
2019-02-25T04:57:00.048Z,7.22
2019-02-25T04:59:27.455Z,3.40
2019-02-25T05:01:55.166Z,6.25
2019-02-25T05:04:22.474Z,7.85
2019-02-25T05:06:49.890Z,6.47
2019-02-25T05:09:17.687Z,6.22
2019-02-25T05:11:45.115Z,6.67
2019-02-25T05:14:13.025Z,6.85
2019-02-25T05:16:40.667Z,6.33
2019-02-25T05:19:08.543Z,5.22
2019-02-25T05:21:36.388Z,7.67
2019-02-25T05:24:04.224Z,6.87
2019-02-25T05:26:31.957Z,6.25
2019-02-25T05:29:00.243Z,6.35
2019-02-25T05:31:27.579Z,6.50
2019-02-25T05:33:55.246Z,6.97
2019-02-25T05:36:22.705Z,5.75
2019-02-25T05:38:50.117Z,6.83
2019-02-25T05:41:17.576Z,5.72
2019-02-25T05:43:45.609Z,5.83
2019-02-25T05:46:13.328Z,8.80
2019-02-25T05:48:40.681Z,7.17
2019-02-25T05:51:08.017Z,5.90
2019-02-25T05:53:35.404Z,5.25
2019-02-25T05:56:02.883Z,8.28
2019-02-25T05:58:30.374Z,7.08
2019-02-25T06:00:57.980Z,5.78
2019-02-25T06:03:26.459Z,6.53
2019-02-25T06:05:54.333Z,4.92
2019-02-25T06:08:21.806Z,4.87
2019-02-25T06:10:49.158Z,6.67
2019-02-25T06:13:16.487Z,5.70
2019-02-25T06:15:44.195Z,5.20
2019-02-25T06:18:11.608Z,7.55
2019-02-25T06:20:39.320Z,7.45
2019-02-25T06:23:07.028Z,5.67
2019-02-25T06:25:37.406Z,4.75
2019-02-25T06:28:04.858Z,4.95
2019-02-25T06:30:32.579Z,6.42
2019-02-25T06:33:00.263Z,8.08
2019-02-25T06:35:28.116Z,6.80
2019-02-25T06:37:55.554Z,12.23
2019-02-25T06:40:22.904Z,6.22
2019-02-25T06:42:50.356Z,7.17
2019-02-25T06:45:18.230Z,5.37
2019-02-25T06:47:45.681Z,6.00
2019-02-25T06:50:13.453Z,6.45
2019-02-25T06:52:40.809Z,4.85
2019-02-25T06:55:10.538Z,5.30
2019-02-25T06:57:37.995Z,5.17
2019-02-25T07:00:08.105Z,4.45
2019-02-25T07:02:35.464Z,6.42
2019-02-25T07:05:14.430Z,6.20
2019-02-25T07:07:59.677Z,6.22
2019-02-25T07:10:58.784Z,7.17
2019-02-25T07:13:50.218Z,4.28
2019-02-25T07:16:46.608Z,6.30
2019-02-25T07:19:42.487Z,5.08
2019-02-25T07:22:44.982Z,4.85
2019-02-25T07:25:21.478Z,6.22
2019-02-25T07:28:15.945Z,5.83
2019-02-25T07:30:51.922Z,5.80
2019-02-25T07:33:37.322Z,6.42
2019-02-25T07:36:15.812Z,7.20
2019-02-25T07:38:58.123Z,6.78
2019-02-25T07:41:43.943Z,8.63
2019-02-25T07:44:42.673Z,6.22
2019-02-25T07:47:35.512Z,5.87
2019-02-25T07:50:21.783Z,6.83
2019-02-25T07:53:08.656Z,6.10
2019-02-25T07:56:04.377Z,9.20
2019-02-25T07:59:03.560Z,9.75
2019-02-25T08:01:40.702Z,6.08
2019-02-25T08:04:24.029Z,5.55
2019-02-25T08:07:23.165Z,6.00
2019-02-25T08:10:22.145Z,8.00
2019-02-25T08:12:56.856Z,6.75
2019-02-25T08:15:39.224Z,7.15
2019-02-25T08:18:15.805Z,7.62
2019-02-25T08:20:56.251Z,6.30
2019-02-25T08:23:30.157Z,10.30
2019-02-25T08:26:35.212Z,9.05
2019-02-25T08:29:20.770Z,7.70
2019-02-25T08:32:19.963Z,7.85
2019-02-25T08:34:59.267Z,8.55
2019-02-25T08:38:08.744Z,8.00
2019-02-25T08:41:09.549Z,5.60
2019-02-25T08:43:59.428Z,7.22
2019-02-25T08:46:31.591Z,5.97
2019-02-25T08:49:06.180Z,6.60
2019-02-25T08:51:33.557Z,5.47
2019-02-25T08:54:01.407Z,7.92
2019-02-25T08:56:28.830Z,6.30
2019-02-25T08:58:56.144Z,6.70
2019-02-25T09:01:23.806Z,6.45
2019-02-25T09:03:51.616Z,9.03
2019-02-25T09:06:19.239Z,8.83
2019-02-25T09:08:46.819Z,7.47
2019-02-25T09:11:29.716Z,7.08
2019-02-25T09:14:10.405Z,6.40
2019-02-25T09:16:48.304Z,6.60
2019-02-25T09:19:17.238Z,7.08
2019-02-25T09:21:44.849Z,6.95
2019-02-25T09:24:14.454Z,7.15
2019-02-25T09:26:42.182Z,7.00
2019-02-25T09:29:09.527Z,12.93
2019-02-25T09:31:37.514Z,10.30
2019-02-25T09:34:05.042Z,6.92
2019-02-25T09:36:32.453Z,8.48
2019-02-25T09:38:59.906Z,10.43
2019-02-25T09:41:29.874Z,8.20
2019-02-25T09:43:56.512Z,7.33
2019-02-25T09:46:23.842Z,9.15
2019-02-25T09:48:51.469Z,8.65
2019-02-25T09:51:18.888Z,9.75
2019-02-25T09:53:46.435Z,10.13
2019-02-25T09:56:14.104Z,7.70
2019-02-25T09:58:41.538Z,10.05
2019-02-25T10:01:09.021Z,10.75
2019-02-25T10:03:36.610Z,9.73
2019-02-25T10:06:04.030Z,9.43
2019-02-25T10:08:31.424Z,7.17
2019-02-25T10:10:58.831Z,10.65
2019-02-25T10:13:26.238Z,6.65
2019-02-25T10:15:53.579Z,10.68
2019-02-25T10:18:20.977Z,8.23
2019-02-25T10:20:48.669Z,11.48
2019-02-25T10:23:16.339Z,8.08
2019-02-25T10:25:43.888Z,9.05
2019-02-25T10:28:11.373Z,7.62
2019-02-25T10:30:39.033Z,12.63
2019-02-25T10:33:06.794Z,9.03
2019-02-25T10:35:34.220Z,12.07
2019-02-25T10:38:03.253Z,10.23
2019-02-25T10:40:30.673Z,8.08
2019-02-25T10:42:57.977Z,11.68
2019-02-25T10:45:25.330Z,9.33
2019-02-25T10:47:57.559Z,10.88
2019-02-25T10:50:21.967Z,7.70
2019-02-25T10:52:52.015Z,8.63
2019-02-25T10:55:28.815Z,8.60
2019-02-25T10:57:57.640Z,9.03
2019-02-25T11:00:25.879Z,8.55
2019-02-25T11:02:58.267Z,11.38
2019-02-25T11:05:27.857Z,9.70
2019-02-25T11:07:55.633Z,6.87
2019-02-25T11:10:46.960Z,7.53
2019-02-25T11:13:14.455Z,8.85
2019-02-25T11:15:42.438Z,8.60
2019-02-25T11:18:11.220Z,7.12
2019-02-25T11:20:38.654Z,7.47
2019-02-25T11:23:06.439Z,9.90
2019-02-25T11:25:33.832Z,7.25
2019-02-25T11:28:04.397Z,8.05
2019-02-25T11:30:31.238Z,8.65
2019-02-25T11:33:00.062Z,6.85
2019-02-25T11:35:27.602Z,5.50
2019-02-25T11:37:58.463Z,7.65
2019-02-25T11:40:27.895Z,7.78
2019-02-25T11:42:55.290Z,6.70
2019-02-25T11:45:26.022Z,11.25
2019-02-25T11:47:54.967Z,6.87
2019-02-25T11:50:26.256Z,8.03
2019-02-25T11:52:56.117Z,8.38
2019-02-25T11:55:23.623Z,7.30
2019-02-25T11:57:54.437Z,6.58
2019-02-25T12:00:23.962Z,7.72
2019-02-25T12:02:51.477Z,7.80
2019-02-25T12:05:18.895Z,5.85
2019-02-25T12:07:46.596Z,7.80
2019-02-25T12:10:14.154Z,7.60
2019-02-25T12:12:42.308Z,8.53
2019-02-25T12:15:11.851Z,5.90
2019-02-25T12:17:39.543Z,8.68
2019-02-25T12:20:07.883Z,8.13
2019-02-25T12:22:35.814Z,5.97
2019-02-25T12:25:04.074Z,6.53
2019-02-25T12:27:31.743Z,8.13
2019-02-25T12:29:59.411Z,6.22
2019-02-25T12:32:26.842Z,4.30
2019-02-25T12:34:54.260Z,6.22
2019-02-25T12:37:21.647Z,3.30
2019-02-25T12:39:49.611Z,5.17
2019-02-25T12:42:17.065Z,4.60
2019-02-25T12:44:44.491Z,7.40
2019-02-25T12:47:12.298Z,4.83
2019-02-25T12:49:39.960Z,4.95
2019-02-25T12:52:07.386Z,4.40
2019-02-25T12:54:35.101Z,7.15
2019-02-25T12:57:02.510Z,4.37
2019-02-25T12:59:30.226Z,4.17
2019-02-25T13:02:01.197Z,5.30
2019-02-25T13:04:33.034Z,3.95
2019-02-25T13:07:00.945Z,4.85
2019-02-25T13:09:28.536Z,7.15
2019-02-25T13:11:56.310Z,5.22
2019-02-25T13:14:23.911Z,6.55
2019-02-25T13:17:03.321Z,5.90
2019-02-25T13:19:30.831Z,7.00
2019-02-25T13:21:58.232Z,7.08
2019-02-25T13:24:25.593Z,7.78
2019-02-25T13:26:53.343Z,4.33
2019-02-25T13:29:21.059Z,4.60
2019-02-25T13:31:48.523Z,4.40
2019-02-25T13:34:16.649Z,4.42
2019-02-25T13:36:44.136Z,5.85
2019-02-25T13:39:11.767Z,8.58
2019-02-25T13:41:39.367Z,5.47
2019-02-25T13:44:07.056Z,5.65
2019-02-25T13:46:34.531Z,3.70
2019-02-25T13:49:01.970Z,3.80
2019-02-25T13:51:29.461Z,3.75
2019-02-25T13:53:57.215Z,5.67
2019-02-25T13:56:24.701Z,5.15
2019-02-25T13:58:52.236Z,4.95
2019-02-25T14:01:20.081Z,4.53
2019-02-25T14:03:47.837Z,6.37
2019-02-25T14:06:15.562Z,6.25
2019-02-25T14:08:43.284Z,5.83
2019-02-25T14:11:10.805Z,4.70
2019-02-25T14:13:38.206Z,4.12
2019-02-25T14:16:05.679Z,5.40
2019-02-25T14:18:33.105Z,6.42
2019-02-25T14:21:00.783Z,3.15
2019-02-25T14:23:28.242Z,6.35
2019-02-25T14:25:57.251Z,4.72
2019-02-25T14:28:25.445Z,6.40
2019-02-25T14:30:53.113Z,4.65
2019-02-25T14:33:23.349Z,4.70
2019-02-25T14:35:52.811Z,6.90
2019-02-25T14:38:20.458Z,2.60
2019-02-25T14:40:51.220Z,4.10
2019-02-25T14:43:20.613Z,4.50
2019-02-25T14:45:53.145Z,5.53
2019-02-25T14:48:20.479Z,5.05
2019-02-25T14:50:46.191Z,5.72
2019-02-25T14:53:14.563Z,5.15
2019-02-25T14:55:44.824Z,7.67
2019-02-25T14:58:12.655Z,5.05
2019-02-25T15:00:41.272Z,10.08
2019-02-25T15:03:08.929Z,4.25
2019-02-25T15:05:36.390Z,7.42
2019-02-25T15:08:03.925Z,4.10
2019-02-25T15:10:33.520Z,6.50
2019-02-25T15:13:02.162Z,4.75
2019-02-25T15:15:30.513Z,5.33
2019-02-25T15:17:57.976Z,5.17
2019-02-25T15:20:26.130Z,4.80
2019-02-25T15:22:54.617Z,5.50
2019-02-25T15:25:22.076Z,6.10
2019-02-25T15:27:49.626Z,9.18
2019-02-25T15:30:22.887Z,4.53
2019-02-25T15:32:55.536Z,7.40
2019-02-25T15:35:21.217Z,4.50
2019-02-25T15:37:50.382Z,7.92
2019-02-25T15:40:20.428Z,3.75
2019-02-25T15:43:20.611Z,3.80
2019-02-25T15:45:45.874Z,4.30
2019-02-25T15:48:15.653Z,6.00
2019-02-25T15:50:46.053Z,4.20
2019-02-25T15:53:16.047Z,3.50
2019-02-25T15:55:42.578Z,3.83
2019-02-25T15:58:10.198Z,4.97
2019-02-25T16:00:38.015Z,4.37
2019-02-25T16:03:06.621Z,5.42
2019-02-25T16:05:36.801Z,4.20
2019-02-25T16:08:05.098Z,5.70
2019-02-25T16:10:33.267Z,11.12
2019-02-25T16:13:02.293Z,12.55
2019-02-25T16:15:30.920Z,15.63
2019-02-25T16:17:58.536Z,22.40
2019-02-25T16:20:27.130Z,20.65
2019-02-25T16:22:56.495Z,25.80
2019-02-25T16:25:25.233Z,27.32
2019-02-25T16:27:54.360Z,21.20
2019-02-25T16:30:23.568Z,12.23
2019-02-25T16:32:51.391Z,13.88
2019-02-25T16:35:20.958Z,10.70
2019-02-25T16:37:50.717Z,8.50
2019-02-25T16:40:18.095Z,8.85
2019-02-25T16:42:45.756Z,8.18
2019-02-25T16:45:15.146Z,6.53
2019-02-25T16:47:42.616Z,7.87
2019-02-25T16:50:12.558Z,10.55
2019-02-25T16:52:42.915Z,6.60
2019-02-25T16:55:11.498Z,6.90
2019-02-25T16:57:40.786Z,5.20
2019-02-25T17:00:11.656Z,8.70
2019-02-25T17:02:40.565Z,6.70
2019-02-25T17:05:09.478Z,6.08
2019-02-25T17:07:38.362Z,7.42
2019-02-25T17:10:08.194Z,7.53
2019-02-25T17:12:36.368Z,5.45
2019-02-25T17:15:04.661Z,6.03
2019-02-25T17:17:32.126Z,10.00
2019-02-25T17:19:59.576Z,8.13
2019-02-25T17:22:27.029Z,7.72
2019-02-25T17:24:56.502Z,7.87
2019-02-25T17:27:24.262Z,5.97
2019-02-25T17:29:53.366Z,10.50
2019-02-25T17:32:21.675Z,6.50
2019-02-25T17:34:50.271Z,6.83
2019-02-25T17:37:18.130Z,6.83
2019-02-25T17:39:46.167Z,5.70
2019-02-25T17:42:14.027Z,11.22
2019-02-25T17:44:41.984Z,10.82
2019-02-25T17:47:11.100Z,7.08
2019-02-25T17:49:40.484Z,9.25
2019-02-25T17:52:08.218Z,6.67
2019-02-25T17:54:37.647Z,6.60
2019-02-25T17:57:07.042Z,9.33
2019-02-25T17:59:34.294Z,6.70
2019-02-25T18:02:02.342Z,6.97
2019-02-25T18:04:32.427Z,5.22
2019-02-25T18:07:00.347Z,6.70
2019-02-25T18:09:27.790Z,6.42
2019-02-25T18:11:55.215Z,7.58
2019-02-25T18:14:22.987Z,6.42
2019-02-25T18:16:51.315Z,9.13
2019-02-25T18:19:20.895Z,6.03
2019-02-25T18:21:48.705Z,7.83
2019-02-25T18:24:16.146Z,9.10
2019-02-25T18:26:44.462Z,6.72
2019-02-25T18:29:15.652Z,4.75
2019-02-25T18:31:42.384Z,6.12
2019-02-25T18:34:11.695Z,7.37
2019-02-25T18:36:40.213Z,6.37
2019-02-25T18:39:11.487Z,6.65
2019-02-25T18:41:39.005Z,7.60
2019-02-25T18:44:07.074Z,7.50
2019-02-25T18:46:35.757Z,8.45
2019-02-25T18:49:05.665Z,7.70
2019-02-25T18:51:35.058Z,9.43
2019-02-25T18:54:03.705Z,14.58
2019-02-25T18:56:31.357Z,6.58
2019-02-25T18:59:09.613Z,6.05
2019-02-25T19:01:28.506Z,6.33
2019-02-25T19:03:56.925Z,5.65
2019-02-25T19:06:25.872Z,5.08
2019-02-25T19:08:53.850Z,8.60
2019-02-25T19:11:23.574Z,10.40
2019-02-25T19:13:52.483Z,6.15
2019-02-25T19:16:21.938Z,6.42
2019-02-25T19:18:50.216Z,7.45
2019-02-25T19:21:17.769Z,10.58
2019-02-25T19:23:46.458Z,5.28
2019-02-25T19:26:15.411Z,5.12
2019-02-25T19:28:45.999Z,5.15
2019-02-25T19:31:13.314Z,8.15
2019-02-25T19:33:40.891Z,5.92
2019-02-25T19:36:09.758Z,8.88
2019-02-25T19:38:41.264Z,7.92
2019-02-25T19:41:06.876Z,4.40
2019-02-25T19:43:34.897Z,5.35
2019-02-25T19:46:04.023Z,6.08
2019-02-25T19:48:33.487Z,7.45
2019-02-25T19:51:01.449Z,8.18
2019-02-25T19:53:33.782Z,7.28
2019-02-25T19:55:59.759Z,13.65
2019-02-25T19:58:30.896Z,7.25
2019-02-25T20:01:00.859Z,7.50
2019-02-25T20:03:26.234Z,8.85
2019-02-25T20:05:56.181Z,6.80
2019-02-25T20:08:23.314Z,9.65
2019-02-25T20:10:54.346Z,7.65
2019-02-25T20:13:22.226Z,8.38
2019-02-25T20:15:51.136Z,4.37
2019-02-25T20:18:19.368Z,7.50
2019-02-25T20:20:47.360Z,6.47
2019-02-25T20:23:14.822Z,6.25
2019-02-25T20:25:44.793Z,8.85
2019-02-25T20:28:11.673Z,10.75
2019-02-25T20:30:39.950Z,6.62
2019-02-25T20:33:08.729Z,8.88
2019-02-25T20:35:37.035Z,7.15
2019-02-25T20:38:05.192Z,7.92
2019-02-25T20:40:33.144Z,7.08
2019-02-25T20:43:02.847Z,12.23
2019-02-25T20:45:31.038Z,6.65
2019-02-25T20:47:59.646Z,8.83
2019-02-25T20:50:28.666Z,6.85
2019-02-25T20:52:58.239Z,6.08
2019-02-25T20:55:27.177Z,5.97
2019-02-25T20:57:54.942Z,7.08
2019-02-25T21:00:22.461Z,6.58
2019-02-25T21:02:50.291Z,6.95
2019-02-25T21:05:20.145Z,9.13
2019-02-25T21:07:48.158Z,7.53
2019-02-25T21:10:16.879Z,8.08
2019-02-25T21:12:44.208Z,6.92
2019-02-25T21:15:12.761Z,6.83
2019-02-25T21:17:40.275Z,6.95
2019-02-25T21:20:10.156Z,12.00
2019-02-25T21:22:38.624Z,7.87
2019-02-25T21:25:07.248Z,11.90
2019-02-25T21:27:36.902Z,11.00
2019-02-25T21:30:06.523Z,5.53
2019-02-25T21:32:35.039Z,11.90
2019-02-25T21:35:04.375Z,12.70
2019-02-25T21:37:31.901Z,7.75
2019-02-25T21:40:00.890Z,11.40
2019-02-25T21:42:28.847Z,10.58
2019-02-25T21:44:57.130Z,10.55
2019-02-25T21:47:26.900Z,7.05
2019-02-25T21:49:58.786Z,10.23
2019-02-25T21:52:26.342Z,7.10
2019-02-25T21:54:53.994Z,11.65
2019-02-25T21:57:21.701Z,8.55
2019-02-25T21:59:49.101Z,12.98
2019-02-25T22:02:16.585Z,14.47
2019-02-25T22:04:45.397Z,10.20
2019-02-25T22:07:17.075Z,12.78
2019-02-25T22:09:43.688Z,5.70
2019-02-25T22:12:12.327Z,9.45
2019-02-25T22:14:41.191Z,11.50
2019-02-25T22:17:08.937Z,10.53
2019-02-25T22:19:39.083Z,10.85
2019-02-25T22:22:07.103Z,8.08
2019-02-25T22:24:36.287Z,9.80
2019-02-25T22:27:03.970Z,12.50
2019-02-25T22:29:31.418Z,10.20
2019-02-25T22:32:00.163Z,6.15
2019-02-25T22:34:28.682Z,6.35
2019-02-25T22:36:56.089Z,5.35
2019-02-25T22:39:25.112Z,14.50
2019-02-25T22:41:52.758Z,7.65
2019-02-25T22:44:20.260Z,6.87
2019-02-25T22:46:48.725Z,7.00
2019-02-25T22:49:16.335Z,5.58
2019-02-25T22:51:44.134Z,7.22
2019-02-25T22:54:12.555Z,5.90
2019-02-25T22:56:41.019Z,6.30
2019-02-25T22:59:08.329Z,6.92
2019-02-25T23:01:37.348Z,6.67
2019-02-25T23:04:04.928Z,5.60
2019-02-25T23:06:32.649Z,8.85
2019-02-25T23:09:00.317Z,7.87
2019-02-25T23:11:28.347Z,8.30
2019-02-25T23:13:55.759Z,5.22
2019-02-25T23:16:25.441Z,5.62
2019-02-25T23:18:53.338Z,6.87
2019-02-25T23:21:23.798Z,9.55
2019-02-25T23:23:53.440Z,10.82
2019-02-25T23:26:21.574Z,7.20
2019-02-25T23:28:49.275Z,11.85
2019-02-25T23:31:18.031Z,5.45
2019-02-25T23:33:47.216Z,9.55
2019-02-25T23:36:17.124Z,6.95
2019-02-25T23:38:44.896Z,4.50
2019-02-25T23:41:14.418Z,8.55
2019-02-25T23:43:42.400Z,6.08
2019-02-25T23:46:10.896Z,8.30
2019-02-25T23:48:41.082Z,5.22
2019-02-25T23:51:07.980Z,4.90
2019-02-25T23:53:35.387Z,5.78
2019-02-25T23:56:02.820Z,5.08
2019-02-25T23:58:30.402Z,6.65
